Time;durP1;ratioP1;P1;durP2;ratioP2;P2;SDS_P1;SDS_P2;PMS_P1;PMS_P2;Temp;Humidity;BMP_temperature;BMP_pressure;BME280_temperature;BME280_humidity;BME280_pressure;Samples;Min_cycle;Max_cycle;Signal;HPM_P1;HPM_P2
2022/07/12 00:00:57;;;;;;;4.23;2.23;;;;;;;;;;5014122;28;20459;-70
2022/07/12 00:03:25;;;;;;;4.33;2.53;;;;;;;;;;5019472;28;20541;-71
2022/07/12 00:05:53;;;;;;;3.57;2.80;;;;;;;;;;5034664;28;20462;-70
2022/07/12 00:08:22;;;;;;;4.00;2.43;;;;;;;;;;5034499;28;20748;-70
2022/07/12 00:10:50;;;;;;;5.17;2.60;;;;;;;;;;5034533;28;20477;-70
2022/07/12 00:13:21;;;;;;;4.60;2.77;;;;;;;;;;5015250;28;20856;-70
2022/07/12 00:15:49;;;;;;;3.90;2.60;;;;;;;;;;5015585;28;20908;-70
2022/07/12 00:18:20;;;;;;;6.30;2.83;;;;;;;;;;5015384;28;20511;-69
2022/07/12 00:20:48;;;;;;;2.80;1.83;;;;;;;;;;5015334;28;20530;-69
2022/07/12 00:23:23;;;;;;;3.20;2.10;;;;;;;;;;5014939;28;20470;-70
2022/07/12 00:25:52;;;;;;;3.80;2.27;;;;;;;;;;5014269;28;20757;-69
2022/07/12 00:28:20;;;;;;;4.10;2.40;;;;;;;;;;5014630;28;20467;-69
2022/07/12 00:30:48;;;;;;;3.20;2.30;;;;;;;;;;5015029;28;20466;-70
2022/07/12 00:33:16;;;;;;;3.60;2.70;;;;;;;;;;5014832;28;20528;-70
2022/07/12 00:35:44;;;;;;;3.87;2.00;;;;;;;;;;5014396;28;20450;-70
2022/07/12 00:38:12;;;;;;;3.30;2.53;;;;;;;;;;5014611;28;20486;-70
2022/07/12 00:40:41;;;;;;;4.70;2.67;;;;;;;;;;5018456;28;20744;-70
2022/07/12 00:43:09;;;;;;;4.60;2.40;;;;;;;;;;5021577;28;20875;-70
2022/07/12 00:45:37;;;;;;;3.27;2.20;;;;;;;;;;5019790;28;20490;-70
2022/07/12 00:48:05;;;;;;;7.37;2.30;;;;;;;;;;5020467;28;20467;-69
2022/07/12 00:50:33;;;;;;;3.90;2.23;;;;;;;;;;5021104;28;20461;-70
2022/07/12 00:53:01;;;;;;;3.40;2.40;;;;;;;;;;5021467;28;20580;-70
2022/07/12 00:55:29;;;;;;;3.53;2.30;;;;;;;;;;5021701;28;20549;-70
2022/07/12 00:57:58;;;;;;;4.00;2.50;;;;;;;;;;5020847;28;20471;-70
2022/07/12 01:00:27;;;;;;;4.73;2.30;;;;;;;;;;5021695;28;20455;-70
2022/07/12 01:02:56;;;;;;;3.70;2.43;;;;;;;;;;5020361;28;20461;-70
2022/07/12 01:05:24;;;;;;;3.90;2.77;;;;;;;;;;5021224;28;20470;-69
2022/07/12 01:07:52;;;;;;;3.63;2.57;;;;;;;;;;5019643;28;20474;-71
2022/07/12 01:10:20;;;;;;;4.57;3.20;;;;;;;;;;5021137;28;20537;-70
2022/07/12 01:12:51;;;;;;;3.80;2.80;;;;;;;;;;5021579;28;20619;-70
2022/07/12 01:15:28;;;;;;;4.00;2.33;;;;;;;;;;5020919;28;20479;-70
2022/07/12 01:17:57;;;;;;;4.07;2.93;;;;;;;;;;5021278;28;20466;-70
2022/07/12 01:20:25;;;;;;;4.50;3.23;;;;;;;;;;5021308;28;20486;-70
2022/07/12 01:22:58;;;;;;;4.17;3.20;;;;;;;;;;5022019;28;20766;-70
2022/07/12 01:25:26;;;;;;;4.43;3.20;;;;;;;;;;5020574;28;20782;-70
2022/07/12 01:27:54;;;;;;;6.20;4.10;;;;;;;;;;5020562;28;20502;-70
2022/07/12 01:30:22;;;;;;;5.10;2.60;;;;;;;;;;5021351;28;20463;-68
2022/07/12 01:32:51;;;;;;;3.80;3.27;;;;;;;;;;5019705;28;20482;-70
2022/07/12 01:35:19;;;;;;;5.17;2.77;;;;;;;;;;5020850;28;20463;-70
2022/07/12 01:37:47;;;;;;;5.37;3.43;;;;;;;;;;5020654;28;20809;-70
2022/07/12 01:40:16;;;;;;;3.50;2.80;;;;;;;;;;5021029;28;20537;-70
2022/07/12 01:42:45;;;;;;;3.83;3.40;;;;;;;;;;5020788;28;20591;-70
2022/07/12 01:45:13;;;;;;;3.90;3.07;;;;;;;;;;5020649;28;20536;-70
2022/07/12 01:47:42;;;;;;;3.30;2.60;;;;;;;;;;5021078;28;20510;-70
2022/07/12 01:50:11;;;;;;;4.57;3.30;;;;;;;;;;5020125;28;20480;-70
2022/07/12 01:52:40;;;;;;;4.17;2.90;;;;;;;;;;5017373;28;20473;-70
2022/07/12 01:55:09;;;;;;;3.73;2.80;;;;;;;;;;5018171;28;20501;-70
2022/07/12 01:57:43;;;;;;;4.93;3.20;;;;;;;;;;5017977;28;20467;-70
2022/07/12 02:00:11;;;;;;;3.97;3.00;;;;;;;;;;5017998;28;20872;-70
2022/07/12 02:02:41;;;;;;;5.87;3.50;;;;;;;;;;5017809;28;20470;-70
2022/07/12 02:05:09;;;;;;;4.57;3.03;;;;;;;;;;5017297;28;20491;-71
2022/07/12 02:07:37;;;;;;;4.47;3.60;;;;;;;;;;5015761;28;21067;-70
2022/07/12 02:10:07;;;;;;;5.20;3.20;;;;;;;;;;5018434;28;20538;-70
2022/07/12 02:12:36;;;;;;;5.00;3.27;;;;;;;;;;5017300;28;20530;-70
2022/07/12 02:15:05;;;;;;;4.17;3.00;;;;;;;;;;5017744;28;20482;-70
2022/07/12 02:17:33;;;;;;;4.60;4.03;;;;;;;;;;5017121;28;20553;-71
2022/07/12 02:20:01;;;;;;;3.90;3.17;;;;;;;;;;5015972;28;20491;-70
2022/07/12 02:22:29;;;;;;;4.03;3.30;;;;;;;;;;5017200;28;20469;-70
2022/07/12 02:24:57;;;;;;;5.47;3.60;;;;;;;;;;5016426;28;20471;-70
2022/07/12 02:27:24;;;;;;;7.50;3.87;;;;;;;;;;5017479;28;20451;-70
2022/07/12 02:29:52;;;;;;;5.40;4.00;;;;;;;;;;5017422;28;20538;-70
2022/07/12 02:32:29;;;;;;;4.77;3.00;;;;;;;;;;5025314;28;20462;-70
2022/07/12 02:34:57;;;;;;;7.27;3.60;;;;;;;;;;5037251;28;20843;-70
2022/07/12 02:37:25;;;;;;;6.57;4.30;;;;;;;;;;5035550;28;21106;-70
2022/07/12 02:40:52;;;;;;;4.97;3.43;;;;;;;;;;5036897;28;20486;-70
2022/07/12 02:42:42;;;;;;;4.20;3.50;;;;;;;;;;5035931;28;20458;-70
2022/07/12 02:45:11;;;;;;;4.70;3.70;;;;;;;;;;5036752;28;20458;-70
2022/07/12 02:47:41;;;;;;;5.70;3.70;;;;;;;;;;5036763;28;20476;-70
2022/07/12 02:50:10;;;;;;;3.97;3.53;;;;;;;;;;5036259;28;20470;-70
2022/07/12 02:52:43;;;;;;;4.20;3.70;;;;;;;;;;5036375;28;20474;-70
2022/07/12 02:55:11;;;;;;;4.80;3.90;;;;;;;;;;5016697;28;20468;-70
2022/07/12 02:57:39;;;;;;;4.37;3.90;;;;;;;;;;5016485;28;20470;-70
2022/07/12 03:00:08;;;;;;;6.30;4.70;;;;;;;;;;5015914;28;20527;-70
2022/07/12 03:02:38;;;;;;;4.50;3.73;;;;;;;;;;5016465;28;20467;-70
2022/07/12 03:05:09;;;;;;;4.70;3.97;;;;;;;;;;5015812;28;20480;-70
2022/07/12 03:07:37;;;;;;;5.27;3.80;;;;;;;;;;5016288;28;20460;-70
2022/07/12 03:10:05;;;;;;;5.00;4.00;;;;;;;;;;5016562;28;20795;-70
2022/07/12 03:12:33;;;;;;;5.50;3.20;;;;;;;;;;5016274;28;20561;-70
2022/07/12 03:15:00;;;;;;;8.63;4.27;;;;;;;;;;5016742;28;20812;-70
2022/07/12 03:17:28;;;;;;;4.70;3.50;;;;;;;;;;5015455;28;20744;-70
2022/07/12 03:19:56;;;;;;;6.27;3.33;;;;;;;;;;5014656;28;20901;-70
2022/07/12 03:22:26;;;;;;;6.83;3.97;;;;;;;;;;5013985;28;20867;-70
2022/07/12 03:24:54;;;;;;;5.87;4.07;;;;;;;;;;5013928;28;20848;-69
2022/07/12 03:27:22;;;;;;;4.43;3.73;;;;;;;;;;5019809;28;20466;-70
2022/07/12 03:29:49;;;;;;;4.97;4.20;;;;;;;;;;5035372;28;20464;-70
2022/07/12 03:32:19;;;;;;;5.37;4.00;;;;;;;;;;5034818;28;20476;-70
2022/07/12 03:34:46;;;;;;;4.60;3.27;;;;;;;;;;5035285;28;20469;-70
2022/07/12 03:37:14;;;;;;;5.00;4.40;;;;;;;;;;5035648;28;20898;-70
2022/07/12 03:39:44;;;;;;;4.23;3.30;;;;;;;;;;5034923;28;20478;-70
2022/07/12 03:42:12;;;;;;;4.87;3.77;;;;;;;;;;5035069;28;20465;-70
2022/07/12 03:44:40;;;;;;;5.77;3.87;;;;;;;;;;5035540;28;20532;-70
2022/07/12 03:47:08;;;;;;;4.83;3.43;;;;;;;;;;5034079;28;20447;-70
2022/07/12 03:49:39;;;;;;;10.03;4.60;;;;;;;;;;5034056;28;20712;-70
2022/07/12 03:52:07;;;;;;;5.90;3.50;;;;;;;;;;5035258;28;20946;-70
2022/07/12 03:54:35;;;;;;;5.50;4.00;;;;;;;;;;5034317;28;20758;-70
2022/07/12 03:57:17;;;;;;;5.60;4.07;;;;;;;;;;5034865;28;20564;-70
2022/07/12 03:59:45;;;;;;;4.37;3.33;;;;;;;;;;5034214;28;20486;-70
2022/07/12 04:02:13;;;;;;;5.60;4.30;;;;;;;;;;5033604;28;21133;-70
2022/07/12 04:04:41;;;;;;;6.00;4.07;;;;;;;;;;5033306;28;20469;-70
2022/07/12 04:07:09;;;;;;;5.47;4.27;;;;;;;;;;5035078;28;20878;-70
2022/07/12 04:09:37;;;;;;;6.20;4.43;;;;;;;;;;5033853;28;20455;-70
2022/07/12 04:12:07;;;;;;;7.47;4.70;;;;;;;;;;5033086;28;20450;-70
2022/07/12 04:14:37;;;;;;;4.97;3.97;;;;;;;;;;5033499;28;20473;-70
2022/07/12 04:17:06;;;;;;;5.10;3.60;;;;;;;;;;5025606;28;20557;-70
2022/07/12 04:19:40;;;;;;;5.70;4.13;;;;;;;;;;5033578;28;20522;-70
2022/07/12 04:22:08;;;;;;;5.33;3.73;;;;;;;;;;5033461;28;20455;-70
2022/07/12 04:24:38;;;;;;;6.20;3.80;;;;;;;;;;5033394;28;20466;-70
2022/07/12 04:27:10;;;;;;;7.07;4.67;;;;;;;;;;5032510;28;20469;-70
2022/07/12 04:29:38;;;;;;;6.33;5.13;;;;;;;;;;5033563;28;20470;-70
2022/07/12 04:32:06;;;;;;;5.20;4.40;;;;;;;;;;5033724;28;20438;-70
2022/07/12 04:34:37;;;;;;;7.50;4.57;;;;;;;;;;5034358;28;20470;-70
2022/07/12 04:37:05;;;;;;;7.07;4.57;;;;;;;;;;5034204;28;20509;-70
2022/07/12 04:39:33;;;;;;;6.23;4.63;;;;;;;;;;5033818;28;20584;-70
2022/07/12 04:42:01;;;;;;;6.43;4.70;;;;;;;;;;5033690;28;20455;-70
2022/07/12 04:44:30;;;;;;;7.30;5.43;;;;;;;;;;5032960;28;20841;-70
2022/07/12 04:46:58;;;;;;;6.87;5.10;;;;;;;;;;5033220;28;20515;-70
2022/07/12 04:49:26;;;;;;;5.30;4.50;;;;;;;;;;5033505;28;20497;-70
2022/07/12 04:51:56;;;;;;;6.00;5.07;;;;;;;;;;5032931;28;20805;-70
2022/07/12 04:54:27;;;;;;;6.80;4.50;;;;;;;;;;5033080;28;20446;-70
2022/07/12 04:56:54;;;;;;;7.53;4.80;;;;;;;;;;5032704;28;20450;-70
2022/07/12 04:59:22;;;;;;;7.33;4.40;;;;;;;;;;5030604;28;20465;-70
2022/07/12 05:01:51;;;;;;;6.87;4.90;;;;;;;;;;5031019;28;20878;-69
2022/07/12 05:04:22;;;;;;;5.47;4.47;;;;;;;;;;5033076;28;20458;-70
2022/07/12 05:06:52;;;;;;;4.93;3.43;;;;;;;;;;5033209;28;20459;-70
2022/07/12 05:09:20;;;;;;;4.40;3.30;;;;;;;;;;5031341;28;20668;-70
2022/07/12 05:11:47;;;;;;;4.40;3.30;;;;;;;;;;5029633;28;20863;-70
2022/07/12 05:14:18;;;;;;;3.20;2.37;;;;;;;;;;5027429;28;20723;-71
2022/07/12 05:16:51;;;;;;;3.70;3.17;;;;;;;;;;5032518;28;20462;-71
2022/07/12 05:19:21;;;;;;;5.87;3.90;;;;;;;;;;5029305;28;20461;-70
2022/07/12 05:21:49;;;;;;;4.77;3.47;;;;;;;;;;5009877;28;20459;-70
2022/07/12 05:24:18;;;;;;;5.43;3.30;;;;;;;;;;5009308;28;20463;-70
2022/07/12 05:26:46;;;;;;;4.87;3.20;;;;;;;;;;5012109;28;20447;-70
2022/07/12 05:29:14;;;;;;;3.67;3.00;;;;;;;;;;5014625;28;20825;-70
2022/07/12 05:31:42;;;;;;;4.40;3.17;;;;;;;;;;5013942;28;20577;-70
2022/07/12 05:34:10;;;;;;;5.93;3.77;;;;;;;;;;5012252;28;20817;-70
2022/07/12 05:36:39;;;;;;;4.27;3.30;;;;;;;;;;5012821;28;20700;-70
2022/07/12 05:39:07;;;;;;;5.77;3.90;;;;;;;;;;5011077;28;20566;-69
2022/07/12 05:41:35;;;;;;;3.77;3.10;;;;;;;;;;5012539;28;20578;-70
2022/07/12 05:44:03;;;;;;;5.40;3.13;;;;;;;;;;5014978;28;20470;-69
2022/07/12 05:46:31;;;;;;;4.20;2.97;;;;;;;;;;5014274;28;20454;-69
2022/07/12 05:48:59;;;;;;;6.00;3.10;;;;;;;;;;5015525;28;20932;-69
2022/07/12 05:54:14;;;;;;;3.93;3.17;;;;;;;;;;5012772;28;20457;-70
2022/07/12 05:56:41;;;;;;;8.60;3.70;;;;;;;;;;5011179;28;20463;-70
2022/07/12 05:59:09;;;;;;;4.97;3.33;;;;;;;;;;5012683;28;20552;-70
2022/07/12 06:01:40;;;;;;;11.73;2.90;;;;;;;;;;5011581;28;20811;-70
2022/07/12 06:04:08;;;;;;;7.10;3.10;;;;;;;;;;5012225;28;20532;-70
2022/07/12 06:06:36;;;;;;;5.40;3.20;;;;;;;;;;5012045;28;20997;-69
2022/07/12 06:09:04;;;;;;;4.20;2.63;;;;;;;;;;5014024;28;20856;-70
2022/07/12 06:11:34;;;;;;;7.83;2.77;;;;;;;;;;5015251;28;20463;-70
2022/07/12 06:14:06;;;;;;;6.83;2.47;;;;;;;;;;5013934;28;20474;-69
2022/07/12 06:16:34;;;;;;;2.57;1.93;;;;;;;;;;5019615;28;20469;-69
2022/07/12 06:19:02;;;;;;;5.27;2.57;;;;;;;;;;5030802;28;20497;-69
2022/07/12 06:21:30;;;;;;;7.50;4.30;;;;;;;;;;5020223;28;20487;-70
2022/07/12 06:23:58;;;;;;;4.70;2.10;;;;;;;;;;5015005;28;20467;-70
2022/07/12 06:26:27;;;;;;;2.83;2.23;;;;;;;;;;5015461;28;20486;-70
2022/07/12 06:28:56;;;;;;;2.23;1.40;;;;;;;;;;5015545;28;20463;-69
2022/07/12 06:31:25;;;;;;;5.13;1.90;;;;;;;;;;5015999;28;20923;-69
2022/07/12 06:33:53;;;;;;;2.47;1.80;;;;;;;;;;5016556;28;20498;-70
2022/07/12 06:36:24;;;;;;;2.43;1.90;;;;;;;;;;5013963;28;20517;-69
2022/07/12 06:38:53;;;;;;;3.40;1.70;;;;;;;;;;5021666;28;20467;-69
2022/07/12 06:41:21;;;;;;;3.53;2.57;;;;;;;;;;5016319;28;20598;-69
2022/07/12 06:43:50;;;;;;;3.57;1.97;;;;;;;;;;5034371;28;20458;-69
2022/07/12 06:46:21;;;;;;;2.97;1.57;;;;;;;;;;5031737;28;20497;-70
2022/07/12 06:48:49;;;;;;;2.30;1.40;;;;;;;;;;5035562;28;20547;-69
2022/07/12 06:51:17;;;;;;;2.60;1.77;;;;;;;;;;5033649;28;20474;-70
2022/07/12 06:53:48;;;;;;;5.53;3.53;;;;;;;;;;5035373;28;20458;-69
2022/07/12 06:56:16;;;;;;;2.83;1.70;;;;;;;;;;5024627;28;20872;-69
2022/07/12 06:58:44;;;;;;;7.50;2.57;;;;;;;;;;5014262;28;20451;-69
2022/07/12 07:01:12;;;;;;;3.10;2.00;;;;;;;;;;5038324;28;20482;-70
2022/07/12 07:03:41;;;;;;;3.50;1.87;;;;;;;;;;5026185;28;20475;-69
2022/07/12 07:06:11;;;;;;;2.50;1.80;;;;;;;;;;5020795;28;20473;-70
2022/07/12 07:08:40;;;;;;;3.10;2.70;;;;;;;;;;5026329;28;20463;-69
2022/07/12 07:11:09;;;;;;;3.33;1.73;;;;;;;;;;5018352;28;20479;-69
2022/07/12 07:13:39;;;;;;;4.83;2.23;;;;;;;;;;5011438;28;21047;-69
2022/07/12 07:16:14;;;;;;;4.60;2.10;;;;;;;;;;5018255;28;20463;-70
2022/07/12 07:18:44;;;;;;;2.40;1.60;;;;;;;;;;5013241;28;20474;-69
2022/07/12 07:21:12;;;;;;;3.00;1.83;;;;;;;;;;5013950;28;20597;-70
2022/07/12 07:23:40;;;;;;;3.03;1.87;;;;;;;;;;5019505;28;20478;-69
2022/07/12 07:26:08;;;;;;;3.30;1.70;;;;;;;;;;5017088;28;20549;-70
2022/07/12 07:30:52;;;;;;;3.00;1.83;;;;;;;;;;5008494;28;20463;-70
2022/07/12 07:31:23;;;;;;;2.70;1.90;;;;;;;;;;5008404;28;20569;-71
2022/07/12 07:33:52;;;;;;;2.70;2.13;;;;;;;;;;5008229;28;20487;-70
2022/07/12 07:36:21;;;;;;;3.50;1.47;;;;;;;;;;5007062;28;20557;-70
2022/07/12 07:38:57;;;;;;;3.50;2.30;;;;;;;;;;5008893;28;20501;-71
2022/07/12 07:41:29;;;;;;;3.00;1.97;;;;;;;;;;5007135;28;20548;-70
2022/07/12 07:43:58;;;;;;;2.20;1.47;;;;;;;;;;5009277;28;20533;-70
2022/07/12 07:46:30;;;;;;;4.10;1.97;;;;;;;;;;5007818;28;21786;-70
2022/07/12 07:49:10;;;;;;;3.60;1.60;;;;;;;;;;5007288;28;20935;-70
2022/07/12 07:51:38;;;;;;;2.63;1.90;;;;;;;;;;5009181;28;20880;-69
2022/07/12 07:54:27;;;;;;;3.07;1.93;;;;;;;;;;5013791;28;21072;-69
2022/07/12 07:56:57;;;;;;;5.27;4.13;;;;;;;;;;5007077;28;20467;-70
2022/07/12 07:59:25;;;;;;;5.83;2.57;;;;;;;;;;5005595;28;22385;-68
2022/07/12 08:01:55;;;;;;;2.47;1.80;;;;;;;;;;5006311;28;20578;-70
2022/07/12 08:04:24;;;;;;;3.30;1.70;;;;;;;;;;5004845;28;20501;-69
2022/07/12 08:06:52;;;;;;;5.33;1.80;;;;;;;;;;5015338;28;21011;-71
2022/07/12 08:09:21;;;;;;;4.67;2.20;;;;;;;;;;5017750;28;20463;-71
2022/07/12 08:11:50;;;;;;;4.20;2.27;;;;;;;;;;5009658;28;20463;-71
2022/07/12 08:14:18;;;;;;;4.20;2.60;;;;;;;;;;5008415;28;20562;-71
2022/07/12 08:16:50;;;;;;;2.63;1.80;;;;;;;;;;5010709;28;20458;-69
2022/07/12 08:19:20;;;;;;;3.83;1.67;;;;;;;;;;5022470;28;20475;-70
2022/07/12 08:22:03;;;;;;;3.23;1.77;;;;;;;;;;5011575;28;20782;-71
2022/07/12 08:24:31;;;;;;;2.90;1.70;;;;;;;;;;5016741;28;20473;-71
2022/07/12 08:27:04;;;;;;;3.27;2.20;;;;;;;;;;5023676;28;20904;-70
2022/07/12 08:29:34;;;;;;;3.80;2.13;;;;;;;;;;5015959;28;20502;-70
2022/07/12 08:32:03;;;;;;;2.30;1.90;;;;;;;;;;5011048;28;20665;-70
2022/07/12 08:34:33;;;;;;;2.83;1.57;;;;;;;;;;5016311;28;20475;-70
2022/07/12 08:37:05;;;;;;;2.27;1.50;;;;;;;;;;5013985;28;20467;-70
2022/07/12 08:39:36;;;;;;;2.93;1.67;;;;;;;;;;5017022;28;20466;-69
2022/07/12 08:42:18;;;;;;;2.27;1.40;;;;;;;;;;5013092;28;20486;-72
2022/07/12 08:44:58;;;;;;;2.30;1.60;;;;;;;;;;5016629;28;20459;-70
2022/07/12 08:47:29;;;;;;;3.67;1.90;;;;;;;;;;5017161;28;21156;-71
2022/07/12 08:50:21;;;;;;;3.00;1.93;;;;;;;;;;5013567;28;20930;-71
2022/07/12 08:52:52;;;;;;;4.27;1.63;;;;;;;;;;5012732;28;20482;-70
2022/07/12 08:55:25;;;;;;;2.57;1.50;;;;;;;;;;5014808;28;20913;-70
2022/07/12 08:58:08;;;;;;;2.87;1.20;;;;;;;;;;5013374;28;20498;-70
2022/07/12 09:00:41;;;;;;;2.00;1.30;;;;;;;;;;5022828;28;20921;-71
2022/07/12 09:03:14;;;;;;;3.07;1.60;;;;;;;;;;5015736;28;20465;-71
2022/07/12 09:05:48;;;;;;;2.20;1.47;;;;;;;;;;5023359;28;20480;-71
2022/07/12 09:08:39;;;;;;;;;;;;;;;;;;;;;
2022/07/12 09:11:09;;;;;;;2.10;1.50;;;;;;;;;;5020046;28;20458;-72
2022/07/12 09:13:50;;;;;;;2.30;1.33;;;;;;;;;;5013727;28;20517;-71
2022/07/12 09:16:20;;;;;;;2.70;1.90;;;;;;;;;;5019795;28;20471;-70
2022/07/12 09:18:53;;;;;;;6.20;1.73;;;;;;;;;;5020959;28;20473;-71
2022/07/12 09:21:49;;;;;;;4.13;1.97;;;;;;;;;;5017160;28;20564;-72
2022/07/12 09:24:19;;;;;;;3.60;1.57;;;;;;;;;;5024455;28;20478;-71
2022/07/12 09:26:50;;;;;;;3.80;1.60;;;;;;;;;;5020397;28;20474;-70
2022/07/12 09:29:19;;;;;;;2.73;2.00;;;;;;;;;;5018121;28;21004;-70
2022/07/12 09:37:29;;;;;;;2.60;1.67;;;;;;;;;;5023039;28;20481;-70
2022/07/12 09:40:09;;;;;;;3.33;2.17;;;;;;;;;;5022616;28;20473;-70
2022/07/12 09:42:51;;;;;;;3.00;1.70;;;;;;;;;;5027717;28;20487;-70
2022/07/12 09:45:20;;;;;;;3.53;1.67;;;;;;;;;;5025069;28;20461;-69
2022/07/12 09:47:49;;;;;;;2.30;1.50;;;;;;;;;;5021336;28;20477;-71
2022/07/12 09:50:18;;;;;;;3.20;1.87;;;;;;;;;;5023581;28;20466;-71
2022/07/12 09:52:50;;;;;;;3.53;1.80;;;;;;;;;;5024606;28;20533;-71
2022/07/12 09:55:21;;;;;;;3.27;1.90;;;;;;;;;;5031450;28;20462;-71
2022/07/12 09:57:53;;;;;;;3.77;1.70;;;;;;;;;;5033272;28;20883;-70
2022/07/12 10:00:41;;;;;;;;;;;;;;;;;;;;;
2022/07/12 10:03:11;;;;;;;3.40;2.03;;;;;;;;;;5014748;28;20493;-71
2022/07/12 10:08:25;;;;;;;3.00;2.30;;;;;;;;;;5016611;28;20471;-72
2022/07/12 10:13:50;;;;;;;3.03;1.80;;;;;;;;;;5015033;28;20565;-72
2022/07/12 10:16:42;;;;;;;2.37;1.40;;;;;;;;;;5019428;28;20467;-70
2022/07/12 10:19:35;;;;;;;2.40;1.60;;;;;;;;;;5021246;28;20470;-70
2022/07/12 10:22:06;;;;;;;4.87;1.70;;;;;;;;;;5023616;28;20498;-70
2022/07/12 10:24:53;;;;;;;3.57;1.70;;;;;;;;;;5017337;28;20984;-71
2022/07/12 10:27:44;;;;;;;3.43;1.93;;;;;;;;;;5021499;28;20461;-69
2022/07/12 10:30:17;;;;;;;2.93;1.40;;;;;;;;;;5019370;28;20477;-71
2022/07/12 10:32:46;;;;;;;2.97;1.60;;;;;;;;;;5020284;28;20866;-71
2022/07/12 10:35:15;;;;;;;2.37;1.63;;;;;;;;;;5016105;28;20509;-70
2022/07/12 10:37:44;;;;;;;2.07;1.20;;;;;;;;;;5018394;28;20755;-70
2022/07/12 10:40:21;;;;;;;3.90;1.87;;;;;;;;;;5016476;28;20581;-71
2022/07/12 10:43:21;;;;;;;2.97;1.70;;;;;;;;;;5017023;28;20496;-70
2022/07/12 10:46:06;;;;;;;2.97;1.77;;;;;;;;;;4956774;28;20518;-71
2022/07/12 10:48:47;;;;;;;2.57;1.40;;;;;;;;;;5012901;28;20985;-70
2022/07/12 10:51:16;;;;;;;2.73;1.90;;;;;;;;;;5018576;28;20484;-70
2022/07/12 10:53:45;;;;;;;2.10;1.50;;;;;;;;;;5020138;28;20482;-70
2022/07/12 10:56:25;;;;;;;2.60;1.40;;;;;;;;;;5027673;28;20902;-70
2022/07/12 10:58:56;;;;;;;3.30;2.10;;;;;;;;;;5033204;28;20450;-71
2022/07/12 11:01:25;;;;;;;2.63;1.60;;;;;;;;;;5027506;28;20937;-71
2022/07/12 11:03:56;;;;;;;3.60;2.40;;;;;;;;;;5018892;28;20891;-70
2022/07/12 11:06:26;;;;;;;2.30;1.47;;;;;;;;;;5029257;28;20581;-70
2022/07/12 11:08:57;;;;;;;2.90;1.50;;;;;;;;;;5021854;28;20452;-71
2022/07/12 11:11:29;;;;;;;2.73;1.50;;;;;;;;;;5012801;28;20459;-71
2022/07/12 11:13:57;;;;;;;4.83;1.97;;;;;;;;;;5017135;28;20842;-71
2022/07/12 11:16:26;;;;;;;4.50;1.63;;;;;;;;;;5033355;28;20501;-69
2022/07/12 11:18:56;;;;;;;2.37;1.70;;;;;;;;;;5012256;28;20934;-71
2022/07/12 11:21:25;;;;;;;2.43;1.50;;;;;;;;;;5021135;28;20455;-71
2022/07/12 11:23:56;;;;;;;2.80;1.80;;;;;;;;;;5012967;28;20466;-71
2022/07/12 11:26:28;;;;;;;3.20;1.80;;;;;;;;;;5029291;28;20532;-71
2022/07/12 11:29:02;;;;;;;2.30;1.70;;;;;;;;;;5032766;28;20479;-70
2022/07/12 11:31:31;;;;;;;2.50;1.50;;;;;;;;;;5030109;28;21057;-70
2022/07/12 11:34:02;;;;;;;2.30;1.40;;;;;;;;;;5031981;28;20462;-71
2022/07/12 11:36:31;;;;;;;3.67;1.90;;;;;;;;;;5026940;28;20991;-70
2022/07/12 11:39:01;;;;;;;2.77;1.30;;;;;;;;;;5013817;28;20483;-69
2022/07/12 11:41:37;;;;;;;2.33;1.53;;;;;;;;;;5022992;28;20443;-70
2022/07/12 11:44:08;;;;;;;3.70;1.80;;;;;;;;;;5013308;28;21066;-70
2022/07/12 11:46:47;;;;;;;2.27;1.40;;;;;;;;;;5014918;28;21754;-71
2022/07/12 11:49:38;;;;;;;4.00;1.93;;;;;;;;;;5014011;28;20478;-70
2022/07/12 11:52:08;;;;;;;5.20;1.40;;;;;;;;;;5011653;28;20451;-71
2022/07/12 11:54:36;;;;;;;1.87;1.20;;;;;;;;;;5013461;28;20462;-71
2022/07/12 11:57:08;;;;;;;2.97;1.73;;;;;;;;;;5012078;28;20462;-70
2022/07/12 11:59:36;;;;;;;2.27;1.40;;;;;;;;;;5012261;28;20463;-70
2022/07/12 12:02:13;;;;;;;2.80;1.70;;;;;;;;;;5045510;28;20939;-70
2022/07/12 12:04:51;;;;;;;3.13;1.77;;;;;;;;;;5031480;28;20484;-70
2022/07/12 12:07:28;;;;;;;2.10;1.30;;;;;;;;;;5027464;28;20524;-70
2022/07/12 12:10:05;;;;;;;2.83;1.63;;;;;;;;;;5013892;28;20565;-70
2022/07/12 12:12:56;;;;;;;5.20;1.77;;;;;;;;;;5021884;28;20552;-70
2022/07/12 12:15:28;;;;;;;2.93;1.77;;;;;;;;;;5007529;28;20567;-70
2022/07/12 12:17:56;;;;;;;2.30;1.30;;;;;;;;;;5022036;28;20466;-70
2022/07/12 12:20:29;;;;;;;4.70;1.67;;;;;;;;;;5019567;28;20479;-70
2022/07/12 12:23:05;;;;;;;2.00;1.30;;;;;;;;;;5020325;28;20526;-71
2022/07/12 12:25:33;;;;;;;3.33;1.40;;;;;;;;;;5019477;28;20470;-70
2022/07/12 12:28:03;;;;;;;2.40;1.53;;;;;;;;;;5024382;28;20505;-70
2022/07/12 12:30:36;;;;;;;2.10;1.50;;;;;;;;;;5014602;28;20477;-72
2022/07/12 12:33:06;;;;;;;2.40;1.70;;;;;;;;;;5015861;28;20470;-70
2022/07/12 12:35:38;;;;;;;3.30;1.50;;;;;;;;;;5022109;28;21144;-70
2022/07/12 12:38:26;;;;;;;3.67;1.83;;;;;;;;;;5025650;28;20451;-71
2022/07/12 12:41:00;;;;;;;2.17;1.30;;;;;;;;;;5012128;28;20714;-70
2022/07/12 12:46:55;;;;;;;3.80;2.37;;;;;;;;;;5026284;28;20461;-70
2022/07/12 12:49:50;;;;;;;2.73;1.90;;;;;;;;;;5030811;28;20545;-72
2022/07/12 12:52:51;;;;;;;4.23;1.90;;;;;;;;;;4953833;28;20907;-71
2022/07/12 12:55:35;;;;;;;2.20;1.73;;;;;;;;;;5016073;28;20549;-71
2022/07/12 12:58:07;;;;;;;2.60;2.00;;;;;;;;;;5029283;28;20740;-70
2022/07/12 13:00:37;;;;;;;3.03;1.60;;;;;;;;;;5030963;28;20454;-70
2022/07/12 13:03:07;;;;;;;4.57;2.00;;;;;;;;;;5030969;28;20976;-70
2022/07/12 13:05:43;;;;;;;2.37;1.97;;;;;;;;;;5021807;28;20466;-71
2022/07/12 13:08:18;;;;;;;2.80;1.90;;;;;;;;;;5029610;28;20476;-71
2022/07/12 13:11:18;;;;;;;3.07;2.03;;;;;;;;;;5014254;28;20479;-70
2022/07/12 13:13:38;;;;;;;3.10;2.60;;;;;;;;;;5020374;28;20463;-70
2022/07/12 13:16:07;;;;;;;3.23;2.50;;;;;;;;;;5029667;28;20481;-70
2022/07/12 13:18:39;;;;;;;2.43;1.80;;;;;;;;;;5015156;28;21018;-72
2022/07/12 13:21:11;;;;;;;4.73;2.10;;;;;;;;;;5013580;28;20446;-71
2022/07/12 13:23:39;;;;;;;3.37;2.30;;;;;;;;;;5015627;28;20867;-71
2022/07/12 13:26:12;;;;;;;3.43;2.50;;;;;;;;;;5017097;28;20458;-71
2022/07/12 13:28:45;;;;;;;2.60;2.30;;;;;;;;;;5026031;28;20463;-71
2022/07/12 13:31:16;;;;;;;3.80;2.20;;;;;;;;;;5013236;28;20455;-71
2022/07/12 13:33:44;;;;;;;3.53;2.47;;;;;;;;;;5016170;28;20867;-71
2022/07/12 13:36:13;;;;;;;4.60;2.17;;;;;;;;;;5019579;28;20467;-71
2022/07/12 13:38:41;;;;;;;2.30;1.43;;;;;;;;;;5011084;28;20459;-70
2022/07/12 13:41:13;;;;;;;3.60;2.23;;;;;;;;;;5015037;28;20470;-71
2022/07/12 13:43:44;;;;;;;3.97;2.10;;;;;;;;;;5028803;28;20478;-71
2022/07/12 13:46:12;;;;;;;2.90;2.03;;;;;;;;;;5010173;28;20534;-70
2022/07/12 13:48:46;;;;;;;3.70;1.60;;;;;;;;;;5013842;28;20455;-71
2022/07/12 13:51:15;;;;;;;2.60;1.93;;;;;;;;;;5018467;28;20486;-72
2022/07/12 13:53:43;;;;;;;4.20;1.40;;;;;;;;;;5027055;28;20474;-70
2022/07/12 13:56:26;;;;;;;3.90;1.73;;;;;;;;;;5013837;28;20849;-73
2022/07/12 13:58:59;;;;;;;2.20;1.20;;;;;;;;;;5015998;28;20477;-71
2022/07/12 14:01:27;;;;;;;5.20;3.00;;;;;;;;;;5014069;28;20462;-71
2022/07/12 14:04:04;;;;;;;3.13;1.10;;;;;;;;;;5026329;28;20479;-72
2022/07/12 14:06:32;;;;;;;3.30;0.90;;;;;;;;;;5011101;28;20863;-71
2022/07/12 14:09:03;;;;;;;3.07;0.93;;;;;;;;;;5012625;28;20502;-71
2022/07/12 14:11:32;;;;;;;1.70;0.73;;;;;;;;;;5029431;28;20541;-71
2022/07/12 14:14:09;;;;;;;2.00;0.80;;;;;;;;;;5028979;28;20475;-73
2022/07/12 14:16:40;;;;;;;1.80;0.90;;;;;;;;;;5018105;28;20469;-71
2022/07/12 14:19:12;;;;;;;2.97;0.90;;;;;;;;;;5012585;28;20451;-70
2022/07/12 14:21:47;;;;;;;2.67;1.00;;;;;;;;;;5017043;28;20488;-70
2022/07/12 14:24:14;;;;;;;1.97;0.97;;;;;;;;;;5014978;28;20497;-70
2022/07/12 14:26:44;;;;;;;5.10;1.07;;;;;;;;;;5014331;28;21114;-72
2022/07/12 14:29:12;;;;;;;1.63;0.77;;;;;;;;;;5020299;28;20921;-72
2022/07/12 14:31:40;;;;;;;4.93;0.97;;;;;;;;;;5024700;28;20470;-72
2022/07/12 14:34:13;;;;;;;2.10;1.00;;;;;;;;;;5016845;28;20489;-71
2022/07/12 14:36:41;;;;;;;1.77;0.90;;;;;;;;;;5013677;28;20872;-71
2022/07/12 14:39:09;;;;;;;2.00;1.13;;;;;;;;;;5011322;28;20467;-70
2022/07/12 14:41:38;;;;;;;4.53;3.57;;;;;;;;;;5021272;28;20781;-70
2022/07/12 14:44:09;;;;;;;2.57;1.00;;;;;;;;;;5018042;28;21189;-70
2022/07/12 14:46:41;;;;;;;2.00;1.10;;;;;;;;;;5017394;28;20771;-70
2022/07/12 14:52:09;;;;;;;2.30;0.93;;;;;;;;;;5010977;28;20493;-71
2022/07/12 14:55:04;;;;;;;;;;;;;;;;;;;;;
2022/07/12 15:00:47;;;;;;;2.10;1.20;;;;;;;;;;5011659;28;20470;-70
2022/07/12 15:03:18;;;;;;;2.17;1.10;;;;;;;;;;5012764;28;20518;-71
2022/07/12 15:06:06;;;;;;;2.53;0.93;;;;;;;;;;5015023;28;20493;-71
2022/07/12 15:09:04;;;;;;;1.97;1.13;;;;;;;;;;5013066;28;20486;-70
2022/07/12 15:11:34;;;;;;;2.00;1.20;;;;;;;;;;5016529;28;20489;-70
2022/07/12 15:14:05;;;;;;;1.90;1.20;;;;;;;;;;5010351;28;20553;-70
2022/07/12 15:16:38;;;;;;;2.20;1.43;;;;;;;;;;5020776;28;20990;-70
2022/07/12 15:19:06;;;;;;;1.90;0.87;;;;;;;;;;5010568;28;20535;-70
2022/07/12 15:21:48;;;;;;;2.27;1.13;;;;;;;;;;5030786;28;20454;-70
2022/07/12 15:24:16;;;;;;;2.03;1.20;;;;;;;;;;5031766;28;20490;-70
2022/07/12 15:26:45;;;;;;;3.03;1.20;;;;;;;;;;5032088;28;20549;-70
2022/07/12 15:29:17;;;;;;;1.97;1.00;;;;;;;;;;5051252;28;20449;-70
2022/07/12 15:31:47;;;;;;;1.83;0.97;;;;;;;;;;5019177;28;20474;-70
2022/07/12 15:34:15;;;;;;;3.30;1.10;;;;;;;;;;5012816;28;20728;-70